Aviation Digital Data Service (ADDS)

Output produced by METARs form (0224 UTC 16 July 2019)
found at http://www.aviationweather.gov/metar/data/
 
Forecast for: VOHY (HYDERABAD (CIV/M, IN)
Text: TAF VOHY 160200Z 1603/1612 26008KT 6000 FEW015 SCT100
Forecast period: 0300 to 0400 UTC 16 July 2019
Forecast type: FROM: standard forecast or significant change
Winds: from the W (260 degrees) at 9 MPH (8 knots; 4.1 m/s)
Visibility: 4 miles (6 km)
Ceiling: at least 12,000 feet AGL
Clouds: few clouds at 1500 feet AGL
scattered clouds at 10000 feet AGL
Weather: no significant weather forecast for this period
Text: BECMG 1604/1606 26012KT 6000 SCT015 SCT025
Forecast period: 0400 to 1200 UTC 16 July 2019
Forecast type: BECOMING: Conditions expected to become as follows by 0600 UTC 16 July 2019
Winds: from the W (260 degrees) at 14 MPH (12 knots; 6.2 m/s)
Visibility: 4 miles (6 km)
Ceiling: at least 12,000 feet AGL
Clouds: scattered clouds at 1500 feet AGL
scattered clouds at 2500 feet AGL
Weather: no significant weather forecast for this period
Text: TEMPO 1610/1612 27015KT 3000 RA SCT010 FEW030TCU BKN080
Forecast period: 1000 to 1200 UTC 16 July 2019
Forecast type: TEMPORARY: The following changes expected for less than half the time period
Winds: from the W (270 degrees) at 17 MPH (15 knots; 7.7 m/s)
Visibility: 1.86 miles (2.99 km)
Ceiling: 8000 feet AGL
Clouds: scattered clouds at 1000 feet AGL
few clouds at 3000 feet AGL
broken clouds at 8000 feet AGL
Weather: RA  (moderate rain)